sensor_id;sensor_type;location;lat;lon;timestamp;P1;durP1;ratioP1;P2;durP2;ratioP2
5465;SDS011;2755;50.728;7.108;2022-10-14T00:01:35;10.47;;;7.27;;
5465;SDS011;2755;50.728;7.108;2022-10-14T00:04:01;9.60;;;7.07;;
5465;SDS011;2755;50.728;7.108;2022-10-14T00:06:29;15.93;;;6.30;;
5465;SDS011;2755;50.728;7.108;2022-10-14T00:08:57;15.50;;;7.80;;
5465;SDS011;2755;50.728;7.108;2022-10-14T00:11:26;11.83;;;7.13;;
5465;SDS011;2755;50.728;7.108;2022-10-14T00:13:57;12.23;;;7.67;;
5465;SDS011;2755;50.728;7.108;2022-10-14T00:16:27;9.00;;;6.73;;
5465;SDS011;2755;50.728;7.108;2022-10-14T00:18:54;16.27;;;7.30;;
5465;SDS011;2755;50.728;7.108;2022-10-14T00:21:21;10.73;;;6.07;;
5465;SDS011;2755;50.728;7.108;2022-10-14T00:23:47;8.60;;;5.93;;
5465;SDS011;2755;50.728;7.108;2022-10-14T00:26:17;15.00;;;8.37;;
5465;SDS011;2755;50.728;7.108;2022-10-14T00:28:44;9.00;;;6.70;;
5465;SDS011;2755;50.728;7.108;2022-10-14T00:31:10;7.70;;;6.07;;
5465;SDS011;2755;50.728;7.108;2022-10-14T00:33:36;9.80;;;6.20;;
5465;SDS011;2755;50.728;7.108;2022-10-14T00:36:02;11.87;;;7.00;;
5465;SDS011;2755;50.728;7.108;2022-10-14T00:38:30;13.43;;;7.20;;
5465;SDS011;2755;50.728;7.108;2022-10-14T00:40:56;9.20;;;6.40;;
5465;SDS011;2755;50.728;7.108;2022-10-14T00:43:23;9.60;;;6.27;;
5465;SDS011;2755;50.728;7.108;2022-10-14T00:45:50;7.47;;;6.03;;
5465;SDS011;2755;50.728;7.108;2022-10-14T00:48:17;8.90;;;5.87;;
5465;SDS011;2755;50.728;7.108;2022-10-14T00:50:46;11.00;;;7.13;;
5465;SDS011;2755;50.728;7.108;2022-10-14T00:53:14;9.50;;;5.87;;
5465;SDS011;2755;50.728;7.108;2022-10-14T00:55:40;9.37;;;6.23;;
5465;SDS011;2755;50.728;7.108;2022-10-14T00:58:08;8.90;;;5.97;;
5465;SDS011;2755;50.728;7.108;2022-10-14T01:00:34;7.03;;;4.80;;
5465;SDS011;2755;50.728;7.108;2022-10-14T01:03:00;9.87;;;6.70;;
5465;SDS011;2755;50.728;7.108;2022-10-14T01:05:31;8.03;;;6.00;;
5465;SDS011;2755;50.728;7.108;2022-10-14T01:08:10;12.87;;;5.80;;
5465;SDS011;2755;50.728;7.108;2022-10-14T01:14:17;6.40;;;4.80;;
5465;SDS011;2755;50.728;7.108;2022-10-14T01:16:59;11.50;;;6.17;;
5465;SDS011;2755;50.728;7.108;2022-10-14T01:22:27;9.20;;;5.10;;
5465;SDS011;2755;50.728;7.108;2022-10-14T01:27:47;7.93;;;5.03;;
5465;SDS011;2755;50.728;7.108;2022-10-14T01:30:32;11.33;;;5.50;;
5465;SDS011;2755;50.728;7.108;2022-10-14T01:33:25;9.50;;;5.83;;
5465;SDS011;2755;50.728;7.108;2022-10-14T01:36:01;8.70;;;5.30;;
5465;SDS011;2755;50.728;7.108;2022-10-14T01:38:35;11.90;;;5.97;;
5465;SDS011;2755;50.728;7.108;2022-10-14T01:41:09;8.87;;;5.97;;
5465;SDS011;2755;50.728;7.108;2022-10-14T01:43:41;14.87;;;7.83;;
5465;SDS011;2755;50.728;7.108;2022-10-14T01:46:09;11.73;;;6.27;;
5465;SDS011;2755;50.728;7.108;2022-10-14T01:48:37;12.87;;;6.70;;
5465;SDS011;2755;50.728;7.108;2022-10-14T01:51:08;15.70;;;7.00;;
5465;SDS011;2755;50.728;7.108;2022-10-14T01:53:38;18.37;;;6.63;;
5465;SDS011;2755;50.728;7.108;2022-10-14T01:56:12;14.40;;;8.03;;
5465;SDS011;2755;50.728;7.108;2022-10-14T01:58:41;7.90;;;5.97;;
5465;SDS011;2755;50.728;7.108;2022-10-14T02:01:08;13.23;;;8.27;;
5465;SDS011;2755;50.728;7.108;2022-10-14T02:03:44;10.33;;;7.00;;
5465;SDS011;2755;50.728;7.108;2022-10-14T02:06:20;8.43;;;6.00;;
5465;SDS011;2755;50.728;7.108;2022-10-14T02:17:29;20.00;;;7.70;;
5465;SDS011;2755;50.728;7.108;2022-10-14T02:20:39;8.50;;;7.00;;
5465;SDS011;2755;50.728;7.108;2022-10-14T02:22:50;9.27;;;7.50;;
5465;SDS011;2755;50.728;7.108;2022-10-14T02:25:23;13.63;;;8.30;;
5465;SDS011;2755;50.728;7.108;2022-10-14T02:27:54;16.87;;;9.13;;
5465;SDS011;2755;50.728;7.108;2022-10-14T02:30:22;13.03;;;7.90;;
5465;SDS011;2755;50.728;7.108;2022-10-14T02:32:47;9.87;;;7.47;;
5465;SDS011;2755;50.728;7.108;2022-10-14T02:35:15;14.57;;;9.10;;
5465;SDS011;2755;50.728;7.108;2022-10-14T02:37:45;12.10;;;7.70;;
5465;SDS011;2755;50.728;7.108;2022-10-14T02:40:17;10.37;;;7.90;;
5465;SDS011;2755;50.728;7.108;2022-10-14T02:42:48;15.80;;;7.97;;
5465;SDS011;2755;50.728;7.108;2022-10-14T02:45:14;11.77;;;7.70;;
5465;SDS011;2755;50.728;7.108;2022-10-14T02:47:40;11.27;;;7.00;;
5465;SDS011;2755;50.728;7.108;2022-10-14T02:50:06;11.20;;;7.00;;
5465;SDS011;2755;50.728;7.108;2022-10-14T02:52:33;11.13;;;6.40;;
5465;SDS011;2755;50.728;7.108;2022-10-14T02:54:58;8.60;;;6.87;;
5465;SDS011;2755;50.728;7.108;2022-10-14T02:57:24;8.50;;;5.20;;
5465;SDS011;2755;50.728;7.108;2022-10-14T02:59:50;8.53;;;5.57;;
5465;SDS011;2755;50.728;7.108;2022-10-14T03:02:15;8.13;;;5.67;;
5465;SDS011;2755;50.728;7.108;2022-10-14T03:04:41;9.50;;;5.00;;
5465;SDS011;2755;50.728;7.108;2022-10-14T03:07:06;11.23;;;5.93;;
5465;SDS011;2755;50.728;7.108;2022-10-14T03:09:32;9.30;;;7.00;;
5465;SDS011;2755;50.728;7.108;2022-10-14T03:11:57;10.20;;;7.10;;
5465;SDS011;2755;50.728;7.108;2022-10-14T03:14:23;11.20;;;6.27;;
5465;SDS011;2755;50.728;7.108;2022-10-14T03:16:49;12.40;;;6.80;;
5465;SDS011;2755;50.728;7.108;2022-10-14T03:19:14;10.00;;;6.10;;
5465;SDS011;2755;50.728;7.108;2022-10-14T03:21:40;5.87;;;5.10;;
5465;SDS011;2755;50.728;7.108;2022-10-14T03:24:07;7.30;;;6.00;;
5465;SDS011;2755;50.728;7.108;2022-10-14T03:26:33;8.10;;;6.00;;
5465;SDS011;2755;50.728;7.108;2022-10-14T03:28:59;10.20;;;7.10;;
5465;SDS011;2755;50.728;7.108;2022-10-14T03:31:24;8.43;;;5.77;;
5465;SDS011;2755;50.728;7.108;2022-10-14T03:33:50;9.60;;;6.40;;
5465;SDS011;2755;50.728;7.108;2022-10-14T03:36:15;6.57;;;5.70;;
5465;SDS011;2755;50.728;7.108;2022-10-14T03:38:41;9.57;;;6.90;;
5465;SDS011;2755;50.728;7.108;2022-10-14T03:41:07;7.10;;;5.13;;
5465;SDS011;2755;50.728;7.108;2022-10-14T03:43:32;10.87;;;5.60;;
5465;SDS011;2755;50.728;7.108;2022-10-14T03:45:58;6.30;;;4.60;;
5465;SDS011;2755;50.728;7.108;2022-10-14T03:48:24;7.57;;;4.63;;
5465;SDS011;2755;50.728;7.108;2022-10-14T03:50:49;6.77;;;5.33;;
5465;SDS011;2755;50.728;7.108;2022-10-14T03:53:15;9.43;;;6.00;;
5465;SDS011;2755;50.728;7.108;2022-10-14T03:55:40;11.60;;;6.43;;
5465;SDS011;2755;50.728;7.108;2022-10-14T03:58:06;9.40;;;6.70;;
5465;SDS011;2755;50.728;7.108;2022-10-14T04:00:32;13.70;;;6.53;;
5465;SDS011;2755;50.728;7.108;2022-10-14T04:02:59;9.50;;;6.63;;
5465;SDS011;2755;50.728;7.108;2022-10-14T04:05:25;8.60;;;5.00;;
5465;SDS011;2755;50.728;7.108;2022-10-14T04:07:56;7.70;;;5.43;;
5465;SDS011;2755;50.728;7.108;2022-10-14T04:10:22;12.10;;;6.40;;
5465;SDS011;2755;50.728;7.108;2022-10-14T04:12:47;7.23;;;5.80;;
5465;SDS011;2755;50.728;7.108;2022-10-14T04:15:14;11.77;;;6.50;;
5465;SDS011;2755;50.728;7.108;2022-10-14T04:17:40;10.03;;;6.90;;
5465;SDS011;2755;50.728;7.108;2022-10-14T04:20:05;9.17;;;6.67;;
5465;SDS011;2755;50.728;7.108;2022-10-14T04:22:31;7.70;;;5.20;;
5465;SDS011;2755;50.728;7.108;2022-10-14T04:24:57;9.67;;;5.40;;
5465;SDS011;2755;50.728;7.108;2022-10-14T04:27:23;7.20;;;5.00;;
5465;SDS011;2755;50.728;7.108;2022-10-14T04:29:49;9.43;;;5.43;;
5465;SDS011;2755;50.728;7.108;2022-10-14T04:32:16;11.17;;;6.27;;
5465;SDS011;2755;50.728;7.108;2022-10-14T04:34:42;6.53;;;4.37;;
5465;SDS011;2755;50.728;7.108;2022-10-14T04:37:08;10.03;;;6.03;;
5465;SDS011;2755;50.728;7.108;2022-10-14T04:39:34;14.70;;;5.97;;
5465;SDS011;2755;50.728;7.108;2022-10-14T04:42:00;12.57;;;6.23;;
5465;SDS011;2755;50.728;7.108;2022-10-14T04:44:26;10.93;;;6.50;;
5465;SDS011;2755;50.728;7.108;2022-10-14T04:46:51;10.33;;;5.93;;
5465;SDS011;2755;50.728;7.108;2022-10-14T04:49:17;6.90;;;5.30;;
5465;SDS011;2755;50.728;7.108;2022-10-14T04:51:43;7.43;;;5.40;;
5465;SDS011;2755;50.728;7.108;2022-10-14T04:54:08;8.80;;;5.63;;
5465;SDS011;2755;50.728;7.108;2022-10-14T04:56:37;8.60;;;4.73;;
5465;SDS011;2755;50.728;7.108;2022-10-14T04:59:03;11.47;;;6.67;;
5465;SDS011;2755;50.728;7.108;2022-10-14T05:01:29;7.03;;;5.00;;
5465;SDS011;2755;50.728;7.108;2022-10-14T05:03:54;9.83;;;5.67;;
5465;SDS011;2755;50.728;7.108;2022-10-14T05:06:20;6.90;;;4.87;;
5465;SDS011;2755;50.728;7.108;2022-10-14T05:08:46;5.37;;;4.17;;
5465;SDS011;2755;50.728;7.108;2022-10-14T05:11:11;6.03;;;4.40;;
5465;SDS011;2755;50.728;7.108;2022-10-14T05:13:37;6.83;;;4.63;;
5465;SDS011;2755;50.728;7.108;2022-10-14T05:16:03;5.43;;;4.30;;
5465;SDS011;2755;50.728;7.108;2022-10-14T05:18:29;6.50;;;3.77;;
5465;SDS011;2755;50.728;7.108;2022-10-14T05:20:56;5.77;;;3.70;;
5465;SDS011;2755;50.728;7.108;2022-10-14T05:23:23;5.53;;;4.53;;
5465;SDS011;2755;50.728;7.108;2022-10-14T05:25:49;6.67;;;4.30;;
5465;SDS011;2755;50.728;7.108;2022-10-14T05:28:15;8.23;;;5.47;;
5465;SDS011;2755;50.728;7.108;2022-10-14T05:30:41;6.60;;;4.20;;
5465;SDS011;2755;50.728;7.108;2022-10-14T05:33:07;8.37;;;4.57;;
5465;SDS011;2755;50.728;7.108;2022-10-14T05:35:33;7.90;;;4.50;;
5465;SDS011;2755;50.728;7.108;2022-10-14T05:37:59;11.03;;;5.60;;
5465;SDS011;2755;50.728;7.108;2022-10-14T05:40:25;10.27;;;6.40;;
5465;SDS011;2755;50.728;7.108;2022-10-14T05:42:51;8.33;;;5.40;;
5465;SDS011;2755;50.728;7.108;2022-10-14T05:45:16;6.57;;;5.10;;
5465;SDS011;2755;50.728;7.108;2022-10-14T05:47:42;12.47;;;5.67;;
5465;SDS011;2755;50.728;7.108;2022-10-14T05:50:08;16.17;;;5.90;;
5465;SDS011;2755;50.728;7.108;2022-10-14T05:52:34;10.97;;;5.83;;
5465;SDS011;2755;50.728;7.108;2022-10-14T05:55:01;11.13;;;5.77;;
5465;SDS011;2755;50.728;7.108;2022-10-14T05:57:26;8.80;;;5.60;;
5465;SDS011;2755;50.728;7.108;2022-10-14T05:59:52;7.43;;;4.70;;
5465;SDS011;2755;50.728;7.108;2022-10-14T06:02:18;13.23;;;5.97;;
5465;SDS011;2755;50.728;7.108;2022-10-14T06:04:44;14.47;;;6.63;;
5465;SDS011;2755;50.728;7.108;2022-10-14T06:07:10;13.00;;;6.73;;
5465;SDS011;2755;50.728;7.108;2022-10-14T06:09:36;14.17;;;6.03;;
5465;SDS011;2755;50.728;7.108;2022-10-14T06:12:02;12.33;;;6.13;;
5465;SDS011;2755;50.728;7.108;2022-10-14T06:14:28;8.87;;;6.30;;
5465;SDS011;2755;50.728;7.108;2022-10-14T06:16:54;14.00;;;6.83;;
5465;SDS011;2755;50.728;7.108;2022-10-14T06:19:19;12.80;;;5.77;;
5465;SDS011;2755;50.728;7.108;2022-10-14T06:21:45;10.50;;;6.63;;
5465;SDS011;2755;50.728;7.108;2022-10-14T06:24:11;9.77;;;7.10;;
5465;SDS011;2755;50.728;7.108;2022-10-14T06:26:37;13.40;;;6.77;;
5465;SDS011;2755;50.728;7.108;2022-10-14T06:29:03;14.63;;;7.70;;
5465;SDS011;2755;50.728;7.108;2022-10-14T06:31:28;8.37;;;6.03;;
5465;SDS011;2755;50.728;7.108;2022-10-14T06:33:54;7.87;;;6.00;;
5465;SDS011;2755;50.728;7.108;2022-10-14T06:36:19;10.80;;;7.33;;
5465;SDS011;2755;50.728;7.108;2022-10-14T06:38:45;14.27;;;7.80;;
5465;SDS011;2755;50.728;7.108;2022-10-14T06:41:10;12.97;;;7.43;;
5465;SDS011;2755;50.728;7.108;2022-10-14T06:43:36;14.40;;;7.10;;
5465;SDS011;2755;50.728;7.108;2022-10-14T06:46:02;13.50;;;7.57;;
5465;SDS011;2755;50.728;7.108;2022-10-14T06:48:29;13.53;;;7.83;;
5465;SDS011;2755;50.728;7.108;2022-10-14T06:50:57;13.20;;;6.70;;
5465;SDS011;2755;50.728;7.108;2022-10-14T06:53:24;12.70;;;7.37;;
5465;SDS011;2755;50.728;7.108;2022-10-14T06:55:55;12.23;;;7.50;;
5465;SDS011;2755;50.728;7.108;2022-10-14T06:58:22;12.77;;;7.47;;
5465;SDS011;2755;50.728;7.108;2022-10-14T07:00:49;17.13;;;9.27;;
5465;SDS011;2755;50.728;7.108;2022-10-14T07:03:15;18.40;;;9.03;;
5465;SDS011;2755;50.728;7.108;2022-10-14T07:05:40;13.37;;;8.00;;
5465;SDS011;2755;50.728;7.108;2022-10-14T07:08:06;14.57;;;8.73;;
5465;SDS011;2755;50.728;7.108;2022-10-14T07:10:32;18.03;;;8.50;;
5465;SDS011;2755;50.728;7.108;2022-10-14T07:12:57;15.40;;;8.53;;
5465;SDS011;2755;50.728;7.108;2022-10-14T07:15:26;18.97;;;8.30;;
5465;SDS011;2755;50.728;7.108;2022-10-14T07:17:51;14.33;;;8.90;;
5465;SDS011;2755;50.728;7.108;2022-10-14T07:20:17;13.60;;;7.90;;
5465;SDS011;2755;50.728;7.108;2022-10-14T07:22:43;18.83;;;9.30;;
5465;SDS011;2755;50.728;7.108;2022-10-14T07:25:09;15.27;;;8.00;;
5465;SDS011;2755;50.728;7.108;2022-10-14T07:27:35;12.70;;;7.40;;
5465;SDS011;2755;50.728;7.108;2022-10-14T07:30:02;14.23;;;8.93;;
5465;SDS011;2755;50.728;7.108;2022-10-14T07:32:29;12.53;;;7.87;;
5465;SDS011;2755;50.728;7.108;2022-10-14T07:34:55;17.13;;;9.10;;
5465;SDS011;2755;50.728;7.108;2022-10-14T07:37:20;12.77;;;7.87;;
5465;SDS011;2755;50.728;7.108;2022-10-14T07:39:46;16.50;;;8.00;;
5465;SDS011;2755;50.728;7.108;2022-10-14T07:42:12;17.70;;;8.50;;
5465;SDS011;2755;50.728;7.108;2022-10-14T07:44:37;15.23;;;8.10;;
5465;SDS011;2755;50.728;7.108;2022-10-14T07:47:03;11.87;;;7.70;;
5465;SDS011;2755;50.728;7.108;2022-10-14T07:49:29;10.40;;;7.40;;
5465;SDS011;2755;50.728;7.108;2022-10-14T07:51:56;13.50;;;6.97;;
5465;SDS011;2755;50.728;7.108;2022-10-14T07:54:22;9.83;;;6.63;;
5465;SDS011;2755;50.728;7.108;2022-10-14T07:56:49;14.30;;;8.03;;
5465;SDS011;2755;50.728;7.108;2022-10-14T07:59:16;9.97;;;6.60;;
5465;SDS011;2755;50.728;7.108;2022-10-14T08:01:45;15.00;;;7.67;;
5465;SDS011;2755;50.728;7.108;2022-10-14T08:04:11;13.60;;;7.63;;
5465;SDS011;2755;50.728;7.108;2022-10-14T08:06:37;11.83;;;7.07;;
5465;SDS011;2755;50.728;7.108;2022-10-14T08:09:05;15.20;;;7.90;;
5465;SDS011;2755;50.728;7.108;2022-10-14T08:11:32;16.00;;;8.30;;
5465;SDS011;2755;50.728;7.108;2022-10-14T08:13:57;14.07;;;6.40;;
5465;SDS011;2755;50.728;7.108;2022-10-14T08:16:25;12.23;;;6.40;;
5465;SDS011;2755;50.728;7.108;2022-10-14T08:18:56;14.77;;;8.80;;
5465;SDS011;2755;50.728;7.108;2022-10-14T08:21:23;8.73;;;5.97;;
5465;SDS011;2755;50.728;7.108;2022-10-14T08:23:49;8.50;;;5.40;;
5465;SDS011;2755;50.728;7.108;2022-10-14T08:26:27;10.47;;;6.60;;
5465;SDS011;2755;50.728;7.108;2022-10-14T08:28:59;9.30;;;5.83;;
5465;SDS011;2755;50.728;7.108;2022-10-14T08:31:25;14.00;;;6.63;;
5465;SDS011;2755;50.728;7.108;2022-10-14T08:33:52;10.00;;;5.23;;
5465;SDS011;2755;50.728;7.108;2022-10-14T08:36:18;9.67;;;6.40;;
5465;SDS011;2755;50.728;7.108;2022-10-14T08:38:44;10.67;;;6.33;;
5465;SDS011;2755;50.728;7.108;2022-10-14T08:43:52;9.37;;;5.70;;
5465;SDS011;2755;50.728;7.108;2022-10-14T08:46:24;8.10;;;5.10;;
5465;SDS011;2755;50.728;7.108;2022-10-14T08:48:58;7.90;;;4.53;;
5465;SDS011;2755;50.728;7.108;2022-10-14T08:51:35;9.07;;;5.40;;
5465;SDS011;2755;50.728;7.108;2022-10-14T08:54:06;10.40;;;6.07;;
5465;SDS011;2755;50.728;7.108;2022-10-14T08:56:39;12.87;;;5.77;;
5465;SDS011;2755;50.728;7.108;2022-10-14T08:59:10;8.63;;;5.10;;
5465;SDS011;2755;50.728;7.108;2022-10-14T09:02:13;14.23;;;5.70;;
5465;SDS011;2755;50.728;7.108;2022-10-14T09:04:52;8.60;;;5.57;;
5465;SDS011;2755;50.728;7.108;2022-10-14T09:07:19;9.30;;;5.07;;
5465;SDS011;2755;50.728;7.108;2022-10-14T09:10:05;9.00;;;5.00;;
5465;SDS011;2755;50.728;7.108;2022-10-14T09:12:35;8.07;;;4.90;;
5465;SDS011;2755;50.728;7.108;2022-10-14T09:15:10;13.00;;;6.40;;
5465;SDS011;2755;50.728;7.108;2022-10-14T09:18:03;10.07;;;4.73;;
5465;SDS011;2755;50.728;7.108;2022-10-14T09:20:31;10.30;;;6.37;;
5465;SDS011;2755;50.728;7.108;2022-10-14T09:23:00;8.10;;;5.43;;
5465;SDS011;2755;50.728;7.108;2022-10-14T09:25:43;12.43;;;6.20;;
5465;SDS011;2755;50.728;7.108;2022-10-14T09:28:34;11.43;;;5.97;;
5465;SDS011;2755;50.728;7.108;2022-10-14T09:31:03;11.33;;;6.40;;
5465;SDS011;2755;50.728;7.108;2022-10-14T09:33:30;10.10;;;6.50;;
5465;SDS011;2755;50.728;7.108;2022-10-14T09:35:57;13.33;;;6.43;;
5465;SDS011;2755;50.728;7.108;2022-10-14T09:38:23;13.10;;;5.93;;
5465;SDS011;2755;50.728;7.108;2022-10-14T09:40:51;9.10;;;5.80;;
5465;SDS011;2755;50.728;7.108;2022-10-14T09:43:22;9.00;;;6.33;;
5465;SDS011;2755;50.728;7.108;2022-10-14T09:45:52;12.17;;;6.03;;
5465;SDS011;2755;50.728;7.108;2022-10-14T09:48:29;8.20;;;5.80;;
5465;SDS011;2755;50.728;7.108;2022-10-14T09:53:38;17.90;;;6.87;;
5465;SDS011;2755;50.728;7.108;2022-10-14T09:56:06;10.70;;;6.53;;
5465;SDS011;2755;50.728;7.108;2022-10-14T10:01:03;12.80;;;6.23;;
5465;SDS011;2755;50.728;7.108;2022-10-14T10:03:30;12.47;;;7.27;;
5465;SDS011;2755;50.728;7.108;2022-10-14T10:05:58;12.13;;;6.57;;
5465;SDS011;2755;50.728;7.108;2022-10-14T10:08:24;14.53;;;7.63;;
5465;SDS011;2755;50.728;7.108;2022-10-14T10:10:58;10.67;;;5.70;;
5465;SDS011;2755;50.728;7.108;2022-10-14T10:13:36;11.43;;;6.80;;
5465;SDS011;2755;50.728;7.108;2022-10-14T10:16:20;10.00;;;7.30;;
5465;SDS011;2755;50.728;7.108;2022-10-14T10:18:52;14.50;;;6.20;;
5465;SDS011;2755;50.728;7.108;2022-10-14T10:26:42;12.93;;;6.50;;
5465;SDS011;2755;50.728;7.108;2022-10-14T10:29:08;9.13;;;6.30;;
5465;SDS011;2755;50.728;7.108;2022-10-14T10:31:58;13.53;;;7.07;;
5465;SDS011;2755;50.728;7.108;2022-10-14T10:34:51;9.57;;;6.57;;
5465;SDS011;2755;50.728;7.108;2022-10-14T10:37:44;7.70;;;6.43;;
5465;SDS011;2755;50.728;7.108;2022-10-14T10:43:15;10.40;;;6.70;;
5465;SDS011;2755;50.728;7.108;2022-10-14T10:51:11;12.13;;;8.30;;
5465;SDS011;2755;50.728;7.108;2022-10-14T10:54:02;10.57;;;7.73;;
5465;SDS011;2755;50.728;7.108;2022-10-14T10:56:34;12.67;;;7.30;;
5465;SDS011;2755;50.728;7.108;2022-10-14T11:04:44;11.40;;;7.40;;
5465;SDS011;2755;50.728;7.108;2022-10-14T11:07:16;9.93;;;6.90;;
5465;SDS011;2755;50.728;7.108;2022-10-14T11:10:30;12.57;;;6.83;;
5465;SDS011;2755;50.728;7.108;2022-10-14T11:13:29;9.20;;;7.03;;
5465;SDS011;2755;50.728;7.108;2022-10-14T11:16:09;13.63;;;8.20;;
5465;SDS011;2755;50.728;7.108;2022-10-14T11:19:12;10.30;;;8.20;;
5465;SDS011;2755;50.728;7.108;2022-10-14T11:27:20;14.00;;;7.67;;
5465;SDS011;2755;50.728;7.108;2022-10-14T11:30:03;13.93;;;7.90;;
5465;SDS011;2755;50.728;7.108;2022-10-14T11:32:49;10.27;;;6.57;;
5465;SDS011;2755;50.728;7.108;2022-10-14T11:45:54;16.73;;;8.40;;
5465;SDS011;2755;50.728;7.108;2022-10-14T11:48:42;12.20;;;7.63;;
5465;SDS011;2755;50.728;7.108;2022-10-14T11:54:01;10.07;;;6.73;;
5465;SDS011;2755;50.728;7.108;2022-10-14T12:02:03;12.73;;;6.83;;
5465;SDS011;2755;50.728;7.108;2022-10-14T12:04:34;12.43;;;7.97;;
5465;SDS011;2755;50.728;7.108;2022-10-14T12:07:04;12.30;;;6.40;;
5465;SDS011;2755;50.728;7.108;2022-10-14T12:09:41;13.90;;;7.47;;
5465;SDS011;2755;50.728;7.108;2022-10-14T12:12:08;14.00;;;8.03;;
5465;SDS011;2755;50.728;7.108;2022-10-14T12:14:44;11.40;;;8.10;;
5465;SDS011;2755;50.728;7.108;2022-10-14T12:19:54;11.40;;;7.17;;
5465;SDS011;2755;50.728;7.108;2022-10-14T12:22:23;7.73;;;6.10;;
5465;SDS011;2755;50.728;7.108;2022-10-14T12:24:52;11.30;;;6.47;;
5465;SDS011;2755;50.728;7.108;2022-10-14T12:27:20;8.23;;;6.10;;
5465;SDS011;2755;50.728;7.108;2022-10-14T12:29:49;10.00;;;5.83;;
5465;SDS011;2755;50.728;7.108;2022-10-14T12:32:20;10.17;;;6.27;;
5465;SDS011;2755;50.728;7.108;2022-10-14T12:34:49;11.37;;;6.00;;
5465;SDS011;2755;50.728;7.108;2022-10-14T12:42:27;12.20;;;6.10;;
5465;SDS011;2755;50.728;7.108;2022-10-14T12:44:58;7.40;;;5.60;;
5465;SDS011;2755;50.728;7.108;2022-10-14T12:47:29;9.90;;;6.07;;
5465;SDS011;2755;50.728;7.108;2022-10-14T12:52:40;7.97;;;6.07;;
5465;SDS011;2755;50.728;7.108;2022-10-14T12:55:16;8.57;;;7.00;;
5465;SDS011;2755;50.728;7.108;2022-10-14T12:57:51;8.57;;;5.80;;
5465;SDS011;2755;50.728;7.108;2022-10-14T13:02:47;9.10;;;6.80;;
5465;SDS011;2755;50.728;7.108;2022-10-14T13:05:22;9.00;;;6.33;;
5465;SDS011;2755;50.728;7.108;2022-10-14T13:16:04;11.30;;;6.40;;
5465;SDS011;2755;50.728;7.108;2022-10-14T13:18:31;11.13;;;5.40;;
5465;SDS011;2755;50.728;7.108;2022-10-14T13:20:59;11.70;;;6.20;;
5465;SDS011;2755;50.728;7.108;2022-10-14T13:25:53;11.20;;;5.40;;
5465;SDS011;2755;50.728;7.108;2022-10-14T13:28:33;8.50;;;6.03;;
5465;SDS011;2755;50.728;7.108;2022-10-14T13:34:03;7.60;;;5.80;;
5465;SDS011;2755;50.728;7.108;2022-10-14T13:37:00;8.63;;;5.70;;
5465;SDS011;2755;50.728;7.108;2022-10-14T13:39:32;6.77;;;5.90;;
5465;SDS011;2755;50.728;7.108;2022-10-14T13:41:58;7.43;;;5.50;;
5465;SDS011;2755;50.728;7.108;2022-10-14T13:44:25;5.73;;;4.30;;
5465;SDS011;2755;50.728;7.108;2022-10-14T13:46:51;7.37;;;4.90;;
5465;SDS011;2755;50.728;7.108;2022-10-14T13:49:23;7.73;;;5.67;;
5465;SDS011;2755;50.728;7.108;2022-10-14T13:51:58;8.37;;;5.30;;
5465;SDS011;2755;50.728;7.108;2022-10-14T13:54:29;7.47;;;4.30;;
5465;SDS011;2755;50.728;7.108;2022-10-14T13:57:14;10.97;;;4.70;;
5465;SDS011;2755;50.728;7.108;2022-10-14T13:59:42;6.67;;;4.47;;
5465;SDS011;2755;50.728;7.108;2022-10-14T14:02:42;7.90;;;4.80;;
5465;SDS011;2755;50.728;7.108;2022-10-14T14:05:02;5.87;;;4.00;;
5465;SDS011;2755;50.728;7.108;2022-10-14T14:07:32;5.47;;;4.00;;
5465;SDS011;2755;50.728;7.108;2022-10-14T14:10:02;6.10;;;3.77;;
5465;SDS011;2755;50.728;7.108;2022-10-14T14:12:31;5.57;;;4.23;;
5465;SDS011;2755;50.728;7.108;2022-10-14T14:14:57;3.40;;;3.07;;
5465;SDS011;2755;50.728;7.108;2022-10-14T14:17:24;4.10;;;3.10;;
5465;SDS011;2755;50.728;7.108;2022-10-14T14:19:55;6.20;;;3.33;;
5465;SDS011;2755;50.728;7.108;2022-10-14T14:22:25;3.90;;;3.33;;
5465;SDS011;2755;50.728;7.108;2022-10-14T14:25:07;3.03;;;2.63;;
5465;SDS011;2755;50.728;7.108;2022-10-14T14:27:33;5.10;;;2.77;;
5465;SDS011;2755;50.728;7.108;2022-10-14T14:29:59;3.47;;;2.77;;
5465;SDS011;2755;50.728;7.108;2022-10-14T14:32:29;3.13;;;2.40;;
5465;SDS011;2755;50.728;7.108;2022-10-14T14:34:56;3.10;;;2.30;;
5465;SDS011;2755;50.728;7.108;2022-10-14T14:37:24;7.27;;;2.80;;
5465;SDS011;2755;50.728;7.108;2022-10-14T14:39:54;3.13;;;2.83;;
5465;SDS011;2755;50.728;7.108;2022-10-14T14:42:32;4.27;;;2.73;;
5465;SDS011;2755;50.728;7.108;2022-10-14T14:45:11;2.30;;;2.10;;
5465;SDS011;2755;50.728;7.108;2022-10-14T14:47:39;3.43;;;2.10;;
5465;SDS011;2755;50.728;7.108;2022-10-14T14:50:05;2.53;;;1.80;;
5465;SDS011;2755;50.728;7.108;2022-10-14T14:52:35;2.47;;;2.03;;
5465;SDS011;2755;50.728;7.108;2022-10-14T14:55:02;2.60;;;1.87;;
5465;SDS011;2755;50.728;7.108;2022-10-14T14:57:28;1.97;;;1.63;;
5465;SDS011;2755;50.728;7.108;2022-10-14T15:02:27;4.07;;;2.07;;
5465;SDS011;2755;50.728;7.108;2022-10-14T15:05:12;1.80;;;1.50;;
5465;SDS011;2755;50.728;7.108;2022-10-14T15:07:41;2.30;;;1.70;;
5465;SDS011;2755;50.728;7.108;2022-10-14T15:10:07;2.43;;;1.83;;
5465;SDS011;2755;50.728;7.108;2022-10-14T15:12:53;2.63;;;1.73;;
5465;SDS011;2755;50.728;7.108;2022-10-14T15:15:30;3.90;;;1.90;;
5465;SDS011;2755;50.728;7.108;2022-10-14T15:20:35;2.20;;;1.80;;
5465;SDS011;2755;50.728;7.108;2022-10-14T15:23:01;2.33;;;1.50;;
5465;SDS011;2755;50.728;7.108;2022-10-14T15:31:32;1.20;;;1.10;;
5465;SDS011;2755;50.728;7.108;2022-10-14T15:33:58;0.80;;;0.80;;
5465;SDS011;2755;50.728;7.108;2022-10-14T15:36:25;1.33;;;1.10;;
5465;SDS011;2755;50.728;7.108;2022-10-14T15:38:55;2.80;;;1.60;;
5465;SDS011;2755;50.728;7.108;2022-10-14T15:41:22;2.87;;;1.30;;
5465;SDS011;2755;50.728;7.108;2022-10-14T15:43:48;1.30;;;1.00;;
5465;SDS011;2755;50.728;7.108;2022-10-14T15:46:14;2.50;;;1.10;;
5465;SDS011;2755;50.728;7.108;2022-10-14T15:48:58;2.20;;;1.10;;
5465;SDS011;2755;50.728;7.108;2022-10-14T15:51:28;1.90;;;1.50;;
5465;SDS011;2755;50.728;7.108;2022-10-14T15:53:55;2.80;;;1.67;;
5465;SDS011;2755;50.728;7.108;2022-10-14T15:56:21;2.30;;;2.00;;
5465;SDS011;2755;50.728;7.108;2022-10-14T15:58:48;2.30;;;1.70;;
5465;SDS011;2755;50.728;7.108;2022-10-14T16:01:15;1.63;;;1.30;;
5465;SDS011;2755;50.728;7.108;2022-10-14T16:03:44;2.53;;;1.63;;
5465;SDS011;2755;50.728;7.108;2022-10-14T16:06:10;5.17;;;1.73;;
5465;SDS011;2755;50.728;7.108;2022-10-14T16:08:36;3.00;;;1.80;;
5465;SDS011;2755;50.728;7.108;2022-10-14T16:11:02;3.57;;;1.70;;
5465;SDS011;2755;50.728;7.108;2022-10-14T16:13:29;2.60;;;1.70;;
5465;SDS011;2755;50.728;7.108;2022-10-14T16:15:58;3.33;;;1.77;;
5465;SDS011;2755;50.728;7.108;2022-10-14T16:18:25;2.23;;;1.70;;
5465;SDS011;2755;50.728;7.108;2022-10-14T16:20:51;3.93;;;1.60;;
5465;SDS011;2755;50.728;7.108;2022-10-14T16:23:17;2.50;;;1.80;;
5465;SDS011;2755;50.728;7.108;2022-10-14T16:25:45;2.90;;;1.33;;
5465;SDS011;2755;50.728;7.108;2022-10-14T16:28:13;2.50;;;1.73;;
5465;SDS011;2755;50.728;7.108;2022-10-14T16:30:40;5.20;;;1.93;;
5465;SDS011;2755;50.728;7.108;2022-10-14T16:33:12;5.03;;;1.77;;
5465;SDS011;2755;50.728;7.108;2022-10-14T16:35:39;5.13;;;1.90;;
5465;SDS011;2755;50.728;7.108;2022-10-14T16:38:07;1.43;;;1.33;;
5465;SDS011;2755;50.728;7.108;2022-10-14T16:40:36;2.60;;;1.60;;
5465;SDS011;2755;50.728;7.108;2022-10-14T16:43:02;2.70;;;1.80;;
5465;SDS011;2755;50.728;7.108;2022-10-14T16:45:28;1.53;;;1.40;;
5465;SDS011;2755;50.728;7.108;2022-10-14T16:47:54;1.90;;;1.70;;
5465;SDS011;2755;50.728;7.108;2022-10-14T16:50:20;1.67;;;1.33;;
5465;SDS011;2755;50.728;7.108;2022-10-14T16:52:46;1.70;;;1.47;;
5465;SDS011;2755;50.728;7.108;2022-10-14T16:55:31;1.67;;;1.40;;
5465;SDS011;2755;50.728;7.108;2022-10-14T16:57:57;2.53;;;1.70;;
5465;SDS011;2755;50.728;7.108;2022-10-14T17:00:22;1.33;;;1.17;;
5465;SDS011;2755;50.728;7.108;2022-10-14T17:02:48;2.77;;;1.80;;
5465;SDS011;2755;50.728;7.108;2022-10-14T17:05:14;2.30;;;1.50;;
5465;SDS011;2755;50.728;7.108;2022-10-14T17:07:40;2.03;;;1.80;;
5465;SDS011;2755;50.728;7.108;2022-10-14T17:10:06;3.90;;;2.40;;
5465;SDS011;2755;50.728;7.108;2022-10-14T17:12:32;3.73;;;2.13;;